Time;durP1;ratioP1;P1;durP2;ratioP2;P2;SDS_P1;SDS_P2;PMS_P1;PMS_P2;Temp;Humidity;BMP_temperature;BMP_pressure;BME280_temperature;BME280_humidity;BME280_pressure;Samples;Min_cycle;Max_cycle;Signal;HPM_P1;HPM_P2
2021/12/29 00:01:06;;;;;;;6.53;1.75;;;;;;;6.01;100.00;94624.66;5033633;28;24424;-71
2021/12/29 00:03:32;;;;;;;4.40;1.40;;;;;;;6.05;100.00;94631.25;5033830;28;24481;-72
2021/12/29 00:06:00;;;;;;;6.45;1.90;;;;;;;5.93;100.00;94625.13;5033392;28;24991;-72
2021/12/29 00:08:26;;;;;;;6.80;1.63;;;;;;;5.87;100.00;94628.06;5033539;28;24419;-72
2021/12/29 00:10:55;;;;;;;6.95;1.50;;;;;;;5.98;100.00;94630.81;5033571;28;24492;-72
2021/12/29 00:13:22;;;;;;;4.82;1.67;;;;;;;5.88;100.00;94628.88;5033288;28;24832;-72
2021/12/29 00:15:56;;;;;;;4.63;1.40;;;;;;;5.93;100.00;94625.13;5033507;28;24427;-73
2021/12/29 00:18:23;;;;;;;6.70;1.45;;;;;;;6.01;100.00;94633.19;5033621;28;24420;-73
2021/12/29 00:20:49;;;;;;;4.13;1.67;;;;;;;5.99;100.00;94640.16;5033024;28;24972;-72
2021/12/29 00:23:17;;;;;;;4.20;1.33;;;;;;;5.97;100.00;94643.72;5033428;28;24438;-71
2021/12/29 00:25:44;;;;;;;4.87;1.30;;;;;;;5.98;100.00;94640.25;5033135;28;24796;-71
2021/12/29 00:28:10;;;;;;;2.80;1.17;;;;;;;5.97;100.00;94644.59;5033444;28;24508;-72
2021/12/29 00:30:37;;;;;;;5.93;1.60;;;;;;;5.97;100.00;94636.03;5033212;28;24431;-72
2021/12/29 00:33:03;;;;;;;4.03;1.40;;;;;;;5.90;100.00;94640.72;5033251;28;24502;-72
2021/12/29 00:35:30;;;;;;;3.53;1.23;;;;;;;5.86;100.00;94648.69;5032928;28;24507;-72
2021/12/29 00:37:59;;;;;;;5.28;1.30;;;;;;;5.85;100.00;94650.44;5033177;28;24507;-71
2021/12/29 00:40:27;;;;;;;7.45;1.25;;;;;;;5.91;100.00;94664.66;5032905;28;24424;-71
2021/12/29 00:42:53;;;;;;;6.50;1.08;;;;;;;5.92;100.00;94656.88;5033001;28;24465;-72
2021/12/29 00:45:20;;;;;;;1.92;0.80;;;;;;;5.94;100.00;94660.19;5032562;28;24423;-72
2021/12/29 00:47:48;;;;;;;2.47;0.90;;;;;;;5.89;100.00;94671.63;5032711;28;24469;-72
2021/12/29 00:50:16;;;;;;;1.98;0.90;;;;;;;5.92;100.00;94674.88;5032577;28;24881;-71
2021/12/29 00:52:44;;;;;;;1.90;0.70;;;;;;;5.94;100.00;94670.47;5032651;28;24439;-72
2021/12/29 00:55:11;;;;;;;2.65;0.80;;;;;;;6.04;100.00;94686.13;5032887;28;24459;-72
2021/12/29 00:57:39;;;;;;;5.97;0.85;;;;;;;5.94;100.00;94685.88;5032686;28;24427;-72
2021/12/29 01:00:07;;;;;;;1.63;0.70;;;;;;;5.93;100.00;94696.25;5032846;28;24423;-72
2021/12/29 01:02:33;;;;;;;2.57;0.67;;;;;;;5.93;100.00;94709.09;5032502;28;24889;-72
2021/12/29 01:05:00;;;;;;;1.48;0.50;;;;;;;5.94;100.00;94705.63;5032463;28;24976;-72
2021/12/29 01:07:26;;;;;;;2.42;0.80;;;;;;;5.90;100.00;94707.53;5032758;28;24431;-72
2021/12/29 01:09:53;;;;;;;2.00;0.63;;;;;;;5.88;100.00;94716.25;5032559;28;24416;-72
2021/12/29 01:12:19;;;;;;;2.80;0.60;;;;;;;5.99;100.00;94713.88;5032300;28;24478;-71
2021/12/29 01:14:53;;;;;;;1.50;0.40;;;;;;;5.91;100.00;94722.03;5032462;28;24419;-72
2021/12/29 01:17:21;;;;;;;1.67;0.45;;;;;;;5.92;100.00;94733.13;5032318;28;24782;-72
2021/12/29 01:19:49;;;;;;;1.83;0.60;;;;;;;5.93;100.00;94737.34;5032273;28;24976;-72
2021/12/29 01:22:16;;;;;;;2.40;0.60;;;;;;;5.90;100.00;94735.78;5032350;28;24430;-72
2021/12/29 01:24:45;;;;;;;1.60;0.50;;;;;;;5.88;100.00;94742.75;5032373;28;24434;-73
2021/12/29 01:27:12;;;;;;;2.13;0.60;;;;;;;5.86;100.00;94749.75;5032094;28;24420;-71
2021/12/29 01:29:39;;;;;;;0.77;0.50;;;;;;;5.80;100.00;94755.25;5032298;28;24445;-72
2021/12/29 01:32:07;;;;;;;0.88;0.32;;;;;;;5.91;100.00;94752.84;5031928;28;24470;-71
2021/12/29 01:34:34;;;;;;;4.85;0.63;;;;;;;5.91;100.00;94758.00;5032195;28;24416;-72
2021/12/29 01:37:01;;;;;;;1.17;0.40;;;;;;;5.87;100.00;94750.56;5031672;28;24466;-72
2021/12/29 01:39:27;;;;;;;1.08;0.35;;;;;;;5.87;100.00;94756.53;5031809;28;25155;-72
2021/12/29 01:41:56;;;;;;;1.70;0.30;;;;;;;5.94;100.00;94751.88;5030998;28;24431;-72
2021/12/29 01:44:25;;;;;;;1.10;0.30;;;;;;;5.95;100.00;94746.63;5031642;28;24530;-72
2021/12/29 01:46:52;;;;;;;1.05;0.40;;;;;;;5.95;100.00;94766.38;5031638;28;24419;-72
2021/12/29 01:49:20;;;;;;;1.48;0.50;;;;;;;5.90;100.00;94776.91;5031789;28;24781;-72
2021/12/29 01:51:51;;;;;;;1.95;0.50;;;;;;;5.86;100.00;94779.72;5031623;28;24427;-71
2021/12/29 01:54:24;;;;;;;1.92;0.50;;;;;;;5.84;100.00;94779.84;5031669;28;24594;-71
2021/12/29 01:56:53;;;;;;;1.15;0.45;;;;;;;5.80;100.00;94796.34;5031064;28;24422;-71
2021/12/29 01:59:19;;;;;;;0.32;0.30;;;;;;;5.79;100.00;94802.41;5031620;28;24443;-71
2021/12/29 02:01:46;;;;;;;0.90;0.30;;;;;;;5.85;100.00;94802.03;5031713;28;24959;-72
2021/12/29 02:04:12;;;;;;;0.30;0.10;;;;;;;5.83;100.00;94804.72;5031818;28;24438;-72
2021/12/29 02:06:40;;;;;;;0.63;0.20;;;;;;;5.83;100.00;94812.41;5031518;28;24416;-72
2021/12/29 02:09:09;;;;;;;1.20;0.38;;;;;;;5.81;100.00;94813.41;5031276;28;24829;-72
2021/12/29 02:11:37;;;;;;;3.70;0.30;;;;;;;5.78;100.00;94822.16;5031207;28;24987;-72
2021/12/29 02:14:07;;;;;;;0.82;0.25;;;;;;;5.75;100.00;94812.06;5031359;28;24534;-72
2021/12/29 02:16:34;;;;;;;1.80;0.47;;;;;;;5.79;100.00;94817.84;5031160;28;24423;-72
2021/12/29 02:19:03;;;;;;;1.23;0.40;;;;;;;5.79;100.00;94821.22;5031525;28;24423;-72
2021/12/29 02:21:32;;;;;;;0.68;0.30;;;;;;;5.83;100.00;94819.31;5031336;28;24431;-72
2021/12/29 02:24:17;;;;;;;0.38;0.28;;;;;;;5.83;100.00;94812.41;5031471;28;24423;-72
2021/12/29 02:26:45;;;;;;;1.33;0.43;;;;;;;5.75;100.00;94818.94;5030657;28;24957;-72
2021/12/29 02:29:14;;;;;;;0.88;0.30;;;;;;;5.73;100.00;94829.28;5031140;28;24474;-71
2021/12/29 02:31:40;;;;;;;0.73;0.38;;;;;;;5.74;100.00;94843.78;5030988;28;24778;-71
2021/12/29 02:34:09;;;;;;;0.73;0.32;;;;;;;5.75;100.00;94845.44;5030876;28;24446;-74
2021/12/29 02:36:43;;;;;;;0.45;0.32;;;;;;;5.77;100.00;94848.75;5030673;28;24423;-72
2021/12/29 02:39:10;;;;;;;0.75;0.40;;;;;;;5.71;100.00;94851.69;5031235;28;24864;-72
2021/12/29 02:41:37;;;;;;;0.83;0.30;;;;;;;5.69;100.00;94845.81;5030766;28;24420;-72
2021/12/29 02:44:04;;;;;;;0.43;0.13;;;;;;;5.74;100.00;94854.06;5030832;28;24954;-72
2021/12/29 02:46:32;;;;;;;0.47;0.20;;;;;;;5.71;100.00;94846.56;5030536;28;24566;-72
2021/12/29 02:48:59;;;;;;;0.80;0.30;;;;;;;5.67;100.00;94857.91;5030666;28;24519;-71
2021/12/29 02:51:27;;;;;;;0.80;0.20;;;;;;;5.67;100.00;94846.78;5030874;28;24527;-72
2021/12/29 02:53:55;;;;;;;0.30;0.20;;;;;;;5.68;100.00;94861.31;5029990;28;24450;-72
2021/12/29 02:56:23;;;;;;;0.75;0.20;;;;;;;5.67;100.00;94860.47;5030383;28;24485;-72
2021/12/29 02:58:50;;;;;;;1.33;0.50;;;;;;;5.66;100.00;94871.66;5030484;28;24809;-72
2021/12/29 03:01:18;;;;;;;0.93;0.30;;;;;;;5.74;100.00;94871.22;5030529;28;24426;-72
2021/12/29 03:03:44;;;;;;;0.52;0.22;;;;;;;5.75;100.00;94880.59;5030786;28;24474;-72
2021/12/29 03:06:11;;;;;;;1.10;0.30;;;;;;;5.71;100.00;94873.97;5030636;28;24427;-72
2021/12/29 03:08:38;;;;;;;0.45;0.25;;;;;;;5.71;100.00;94890.22;5030439;28;24987;-73
2021/12/29 03:11:07;;;;;;;0.98;0.30;;;;;;;5.72;100.00;94876.47;5030521;28;24992;-72
2021/12/29 03:13:35;;;;;;;0.73;0.22;;;;;;;5.78;100.00;94886.38;5030666;28;24444;-72
2021/12/29 03:16:02;;;;;;;1.00;0.20;;;;;;;5.85;100.00;94898.84;5030042;28;24766;-72
2021/12/29 03:18:29;;;;;;;0.40;0.27;;;;;;;5.78;100.00;94903.53;5030516;28;24503;-72
2021/12/29 03:20:55;;;;;;;0.55;0.30;;;;;;;5.83;100.00;94904.94;5030411;28;24424;-71
2021/12/29 03:23:22;;;;;;;0.60;0.20;;;;;;;5.78;100.00;94896.66;5030688;28;24428;-72
2021/12/29 03:25:48;;;;;;;1.33;0.30;;;;;;;5.71;100.00;94899.66;5030367;28;24478;-73
2021/12/29 03:28:17;;;;;;;0.47;0.20;;;;;;;5.72;100.00;94902.16;5030346;28;24965;-72
2021/12/29 03:30:47;;;;;;;1.35;0.80;;;;;;;5.81;100.00;94906.75;5030142;28;24775;-71
2021/12/29 03:33:14;;;;;;;3.57;1.30;;;;;;;5.66;100.00;94902.50;5030338;28;24447;-72
2021/12/29 03:35:43;;;;;;;1.02;0.65;;;;;;;5.63;100.00;94905.22;5029875;28;24428;-72
2021/12/29 03:38:12;;;;;;;1.08;0.47;;;;;;;5.64;100.00;94893.25;5030261;28;24423;-72
2021/12/29 03:40:40;;;;;;;1.15;0.65;;;;;;;5.63;100.00;94900.09;5030054;28;24431;-72
2021/12/29 03:43:08;;;;;;;0.60;0.60;;;;;;;5.66;100.00;94889.66;5030013;28;24431;-72
2021/12/29 03:45:37;;;;;;;0.60;0.30;;;;;;;5.65;100.00;94889.75;5029775;28;24427;-72
2021/12/29 03:48:04;;;;;;;0.47;0.30;;;;;;;5.64;100.00;94886.34;5030282;28;24434;-72
2021/12/29 03:50:31;;;;;;;0.73;0.20;;;;;;;5.67;100.00;94887.91;5030160;28;24431;-72
2021/12/29 03:52:58;;;;;;;0.60;0.30;;;;;;;5.68;100.00;94887.81;5030068;28;24486;-72
2021/12/29 03:55:24;;;;;;;0.50;0.28;;;;;;;5.70;100.00;94898.81;5029566;28;24975;-72
2021/12/29 03:57:51;;;;;;;1.38;0.32;;;;;;;5.74;100.00;94897.72;5030354;28;24960;-72
2021/12/29 04:00:20;;;;;;;0.35;0.10;;;;;;;5.75;100.00;94906.28;5030176;28;24499;-72
2021/12/29 04:02:49;;;;;;;0.50;0.30;;;;;;;5.73;100.00;94918.38;5030232;28;24574;-72
2021/12/29 04:05:20;;;;;;;0.50;0.20;;;;;;;5.75;100.00;94909.69;5032559;28;24420;-72
2021/12/29 04:07:46;;;;;;;1.20;0.30;;;;;;;5.76;100.00;94911.34;5033574;28;24813;-72
2021/12/29 04:10:13;;;;;;;0.73;0.30;;;;;;;5.79;100.00;94918.88;5033544;28;24423;-72
2021/12/29 04:12:41;;;;;;;4.88;0.70;;;;;;;5.83;100.00;94934.94;5033590;28;24438;-71
2021/12/29 04:15:10;;;;;;;1.00;0.30;;;;;;;5.89;100.00;94938.88;5033602;28;24424;-72
2021/12/29 04:17:37;;;;;;;1.27;0.47;;;;;;;5.83;100.00;94946.03;5033344;28;24427;-72
2021/12/29 04:22:51;;;;;;;1.43;0.50;;;;;;;5.89;100.00;94947.41;5033643;28;25063;-72
2021/12/29 04:25:19;;;;;;;2.57;0.47;;;;;;;5.89;100.00;94955.13;5033076;28;24997;-71
2021/12/29 04:27:46;;;;;;;1.60;0.55;;;;;;;5.90;100.00;94958.53;5033162;28;24485;-72
2021/12/29 04:30:13;;;;;;;2.25;0.70;;;;;;;5.87;100.00;94962.09;5033162;28;24967;-72
2021/12/29 04:32:40;;;;;;;1.92;0.65;;;;;;;5.93;100.00;94960.94;5033115;28;24416;-72
2021/12/29 04:35:08;;;;;;;2.60;0.55;;;;;;;5.91;100.00;94961.00;5032931;28;24443;-72
2021/12/29 04:37:35;;;;;;;1.38;0.63;;;;;;;5.91;100.00;94962.75;5032743;28;24551;-72
2021/12/29 04:40:01;;;;;;;1.30;0.57;;;;;;;5.89;100.00;94967.16;5033280;28;24426;-72
2021/12/29 04:42:27;;;;;;;1.53;0.60;;;;;;;5.91;100.00;94966.16;5032892;28;24821;-72
2021/12/29 04:44:54;;;;;;;2.00;0.67;;;;;;;5.92;100.00;94972.13;5033076;28;24440;-72
2021/12/29 04:47:27;;;;;;;2.73;0.70;;;;;;;5.93;100.00;94969.50;5032629;28;24427;-71
2021/12/29 04:49:54;;;;;;;1.67;0.63;;;;;;;5.92;100.00;94984.97;5033070;28;24438;-71
2021/12/29 04:52:21;;;;;;;2.30;0.80;;;;;;;5.94;100.00;94983.19;5032829;28;24441;-72
2021/12/29 04:54:48;;;;;;;2.13;0.60;;;;;;;5.93;100.00;94973.78;5032710;28;24451;-72
2021/12/29 04:57:15;;;;;;;3.90;0.80;;;;;;;5.96;100.00;94989.03;5032424;28;24945;-72
2021/12/29 04:59:43;;;;;;;2.05;0.52;;;;;;;5.98;100.00;94990.63;5032636;28;24523;-72
2021/12/29 05:02:09;;;;;;;2.42;0.68;;;;;;;5.94;100.00;94986.56;5032541;28;24509;-72
2021/12/29 05:04:45;;;;;;;1.17;0.50;;;;;;;6.01;100.00;94993.03;5032702;28;24423;-72
2021/12/29 05:09:59;;;;;;;1.92;0.60;;;;;;;6.24;100.00;95006.28;5032566;28;24411;-72
2021/12/29 05:12:26;;;;;;;3.80;0.82;;;;;;;6.22;100.00;95002.97;5032248;28;24973;-71
2021/12/29 05:14:52;;;;;;;3.93;0.80;;;;;;;6.16;100.00;95008.50;5032294;28;24451;-72
2021/12/29 05:17:19;;;;;;;3.20;0.88;;;;;;;6.15;100.00;95014.53;5031326;28;24423;-72
2021/12/29 05:19:45;;;;;;;5.73;1.10;;;;;;;6.14;100.00;95018.03;5032298;28;25135;-73
2021/12/29 05:22:12;;;;;;;2.53;0.70;;;;;;;6.14;100.00;95016.28;5032166;28;24557;-73
2021/12/29 05:24:38;;;;;;;1.73;0.70;;;;;;;6.16;100.00;95029.06;5032140;28;24416;-72
2021/12/29 05:27:06;;;;;;;2.13;0.80;;;;;;;6.24;100.00;95026.88;5031710;28;24493;-71
2021/12/29 05:29:33;;;;;;;3.22;0.80;;;;;;;6.24;100.00;95032.00;5032221;28;24538;-72
2021/12/29 05:32:00;;;;;;;2.40;0.80;;;;;;;6.21;100.00;95017.56;5032529;28;24786;-72
2021/12/29 05:34:26;;;;;;;2.55;0.80;;;;;;;6.14;100.00;95028.31;5031926;28;24435;-73
2021/12/29 05:36:52;;;;;;;1.83;0.70;;;;;;;6.14;100.00;95039.41;5031713;28;24423;-72
2021/12/29 05:39:19;;;;;;;1.67;0.60;;;;;;;6.22;100.00;95036.41;5031898;28;24474;-71
2021/12/29 05:41:46;;;;;;;1.80;0.70;;;;;;;6.19;100.00;95040.00;5031558;28;24432;-72
2021/12/29 05:44:13;;;;;;;1.47;0.50;;;;;;;6.15;100.00;95040.22;5031862;28;24511;-72
2021/12/29 05:46:40;;;;;;;1.83;0.55;;;;;;;6.15;100.00;95041.06;5031779;28;24478;-76
2021/12/29 05:49:07;;;;;;;1.98;0.50;;;;;;;6.18;100.00;95050.34;5032020;28;24424;-74
2021/12/29 05:51:34;;;;;;;2.60;0.70;;;;;;;6.16;100.00;95049.63;5031760;28;24478;-72
2021/12/29 05:54:00;;;;;;;2.25;0.60;;;;;;;6.21;100.00;95058.72;5031444;28;24502;-72
2021/12/29 05:56:26;;;;;;;1.60;0.60;;;;;;;6.23;100.00;95064.63;5031125;28;24426;-72
2021/12/29 05:58:53;;;;;;;1.47;0.50;;;;;;;6.27;100.00;95062.69;5031722;28;24424;-72
2021/12/29 06:01:21;;;;;;;1.40;0.40;;;;;;;6.21;100.00;95056.16;5031298;28;24778;-73
2021/12/29 06:03:47;;;;;;;1.30;0.40;;;;;;;6.10;100.00;95040.50;5031780;28;24829;-74
2021/12/29 06:06:14;;;;;;;1.10;0.30;;;;;;;6.04;100.00;95049.41;5031300;28;24434;-73
2021/12/29 06:08:41;;;;;;;0.98;0.50;;;;;;;6.07;100.00;95051.78;5031377;28;24424;-72
2021/12/29 06:11:07;;;;;;;1.33;0.50;;;;;;;6.09;100.00;95056.03;5031293;28;24956;-72
2021/12/29 06:13:34;;;;;;;1.65;0.40;;;;;;;6.09;100.00;95059.44;5031119;28;24455;-72
2021/12/29 06:16:00;;;;;;;2.90;1.40;;;;;;;6.18;100.00;95066.59;5031222;28;24473;-72
2021/12/29 06:18:28;;;;;;;2.47;1.03;;;;;;;6.14;100.00;95054.00;5031240;28;24416;-72
2021/12/29 06:20:55;;;;;;;1.23;0.50;;;;;;;6.08;100.00;95060.31;5031264;28;24428;-72
2021/12/29 06:23:22;;;;;;;0.80;0.33;;;;;;;6.01;100.00;95062.44;5031280;28;24423;-72
2021/12/29 06:25:48;;;;;;;4.60;0.60;;;;;;;5.97;100.00;95065.22;5031027;28;24564;-72
2021/12/29 06:28:15;;;;;;;1.33;0.50;;;;;;;5.92;100.00;95064.63;5031009;28;24502;-73
2021/12/29 06:30:41;;;;;;;0.52;0.20;;;;;;;5.93;100.00;95061.19;5031043;28;24432;-72
2021/12/29 06:33:08;;;;;;;0.80;0.50;;;;;;;5.89;100.00;95069.94;5030878;28;24423;-74
2021/12/29 06:35:36;;;;;;;1.25;0.60;;;;;;;5.85;100.00;95071.03;5030829;28;24505;-72
2021/12/29 06:38:02;;;;;;;1.25;0.70;;;;;;;5.82;100.00;95077.16;5030710;28;24431;-73
2021/12/29 06:40:29;;;;;;;1.30;0.70;;;;;;;5.81;100.00;95083.22;5030657;28;24964;-72
2021/12/29 06:42:55;;;;;;;1.35;0.60;;;;;;;5.83;100.00;95083.97;5030750;28;24782;-72
2021/12/29 06:45:21;;;;;;;1.25;0.60;;;;;;;5.82;100.00;95080.59;5030609;28;24417;-72
2021/12/29 06:47:49;;;;;;;1.52;0.70;;;;;;;5.83;100.00;95084.81;5030657;28;25019;-72
2021/12/29 06:50:15;;;;;;;1.90;0.90;;;;;;;5.80;100.00;95084.13;5030478;28;24419;-72
2021/12/29 06:52:43;;;;;;;2.63;1.27;;;;;;;5.79;100.00;95088.47;5030595;28;24412;-72
2021/12/29 06:55:10;;;;;;;3.10;0.82;;;;;;;5.85;100.00;95097.56;5030524;28;24439;-72
2021/12/29 06:57:36;;;;;;;1.98;0.85;;;;;;;5.80;100.00;95099.56;5030487;28;24415;-72
2021/12/29 07:00:05;;;;;;;1.10;0.47;;;;;;;5.80;100.00;95100.38;5030600;28;24416;-72
2021/12/29 07:02:31;;;;;;;2.08;0.70;;;;;;;5.76;100.00;95108.34;5030387;28;24972;-72
2021/12/29 07:04:57;;;;;;;1.37;0.70;;;;;;;5.71;100.00;95111.19;5030277;28;24416;-72
2021/12/29 07:07:24;;;;;;;1.00;0.50;;;;;;;5.70;100.00;95113.81;5030247;28;24475;-73
2021/12/29 07:09:52;;;;;;;2.15;0.73;;;;;;;5.67;100.00;95113.97;5030350;28;24435;-72
2021/12/29 07:12:19;;;;;;;1.92;0.80;;;;;;;5.69;100.00;95117.31;5030343;28;24430;-72
2021/12/29 07:14:46;;;;;;;4.70;3.60;;;;;;;5.70;100.00;95113.81;5030115;28;24542;-73
2021/12/29 07:17:12;;;;;;;1.88;0.93;;;;;;;5.69;100.00;95133.53;5030355;28;24961;-73
2021/12/29 07:19:38;;;;;;;1.27;0.60;;;;;;;5.66;100.00;95131.13;5030154;28;24937;-73
2021/12/29 07:22:06;;;;;;;1.85;0.80;;;;;;;5.61;100.00;95128.00;5030296;28;24976;-72
2021/12/29 07:24:34;;;;;;;2.08;0.98;;;;;;;5.59;100.00;95148.59;5030333;28;24435;-72
2021/12/29 07:27:02;;;;;;;2.10;1.10;;;;;;;5.66;100.00;95133.69;5029739;28;24416;-72
2021/12/29 07:29:29;;;;;;;1.33;0.60;;;;;;;5.69;100.00;95140.41;5030038;28;24423;-72
2021/12/29 07:31:57;;;;;;;2.30;0.75;;;;;;;5.65;100.00;95141.50;5029884;28;24477;-72
2021/12/29 07:34:24;;;;;;;0.95;0.60;;;;;;;5.58;100.00;95141.00;5029980;28;24541;-72
2021/12/29 07:36:51;;;;;;;2.67;1.00;;;;;;;5.61;100.00;95150.28;5030241;28;24474;-72
2021/12/29 07:39:18;;;;;;;2.60;1.30;;;;;;;5.60;100.00;95154.59;5031331;28;25031;-72
2021/12/29 07:41:46;;;;;;;2.83;2.22;;;;;;;5.57;100.00;95168.41;5034026;28;24424;-72
2021/12/29 07:44:16;;;;;;;1.35;1.13;;;;;;;5.57;100.00;95172.72;5034309;28;24518;-72
2021/12/29 07:46:44;;;;;;;2.03;0.70;;;;;;;5.56;100.00;95182.19;5033983;28;24507;-72
2021/12/29 07:49:10;;;;;;;2.40;0.82;;;;;;;5.57;100.00;95190.72;5034131;28;24519;-72
2021/12/29 07:51:37;;;;;;;1.10;0.80;;;;;;;5.63;100.00;95192.13;5033997;28;24786;-72
2021/12/29 07:54:06;;;;;;;1.92;1.00;;;;;;;5.61;100.00;95204.22;5033753;28;24415;-72
2021/12/29 07:56:32;;;;;;;1.88;0.90;;;;;;;5.61;100.00;95206.78;5033816;28;24427;-72
2021/12/29 07:58:59;;;;;;;1.00;0.77;;;;;;;5.58;100.00;95213.75;5033568;28;24481;-72
2021/12/29 08:01:27;;;;;;;1.80;0.80;;;;;;;5.60;100.00;95218.81;5033868;28;24447;-72
2021/12/29 08:03:53;;;;;;;1.10;0.50;;;;;;;5.56;100.00;95215.56;5033847;28;24416;-72
2021/12/29 08:06:20;;;;;;;1.33;0.50;;;;;;;5.62;100.00;95209.28;5033566;28;24423;-73
2021/12/29 08:08:47;;;;;;;1.00;0.40;;;;;;;5.59;100.00;95207.69;5033697;28;24503;-74
2021/12/29 08:11:13;;;;;;;1.83;0.47;;;;;;;5.64;100.00;95212.59;5033604;28;24427;-72
2021/12/29 08:13:39;;;;;;;0.80;0.50;;;;;;;5.66;100.00;95215.09;5033419;28;24420;-72
2021/12/29 08:16:06;;;;;;;1.30;0.70;;;;;;;5.71;100.00;95207.94;5033150;28;24419;-73
2021/12/29 08:18:34;;;;;;;2.42;0.75;;;;;;;5.71;100.00;95210.53;5033387;28;24419;-73
2021/12/29 08:21:01;;;;;;;1.42;0.60;;;;;;;5.73;100.00;95208.72;5033220;28;24992;-72
2021/12/29 08:23:27;;;;;;;1.83;0.90;;;;;;;5.76;100.00;95216.25;5033424;28;24786;-72
2021/12/29 08:25:53;;;;;;;4.90;1.52;;;;;;;5.76;100.00;95219.66;5032916;28;24477;-73
2021/12/29 08:28:22;;;;;;;1.67;0.75;;;;;;;5.75;100.00;95218.00;5031785;28;24447;-72
2021/12/29 08:30:48;;;;;;;1.58;0.70;;;;;;;5.77;100.00;95213.59;5033400;28;24525;-73
2021/12/29 08:33:15;;;;;;;1.85;0.80;;;;;;;5.81;100.00;95209.13;5033056;28;24485;-72
2021/12/29 08:35:43;;;;;;;1.50;0.63;;;;;;;5.88;100.00;95214.78;5032757;28;25039;-72
2021/12/29 08:38:09;;;;;;;0.82;0.55;;;;;;;5.94;100.00;95212.75;5033116;28;24494;-72
2021/12/29 08:40:36;;;;;;;2.00;0.70;;;;;;;6.01;100.00;95206.38;5032839;28;24435;-72
2021/12/29 08:43:03;;;;;;;3.67;0.73;;;;;;;6.02;100.00;95218.31;5032918;28;24420;-73
2021/12/29 08:45:31;;;;;;;1.80;0.90;;;;;;;6.05;100.00;95228.44;5033011;28;24847;-73
2021/12/29 08:47:59;;;;;;;1.77;1.00;;;;;;;6.11;100.00;95219.53;5033132;28;24875;-74
2021/12/29 08:50:29;;;;;;;3.42;1.63;;;;;;;6.20;100.00;95218.25;5033069;28;24926;-72
2021/12/29 08:52:57;;;;;;;3.72;1.67;;;;;;;6.25;100.00;95203.38;5033085;28;24423;-72
2021/12/29 08:55:24;;;;;;;1.92;1.30;;;;;;;6.26;100.00;95217.88;5032271;28;24895;-72
2021/12/29 08:57:50;;;;;;;2.45;1.20;;;;;;;6.28;100.00;95222.03;5032859;28;24427;-73
2021/12/29 09:00:18;;;;;;;3.75;1.45;;;;;;;6.32;100.00;95212.41;5032682;28;24770;-72
2021/12/29 09:02:45;;;;;;;2.63;1.60;;;;;;;6.31;100.00;95208.19;5032844;28;24450;-73
2021/12/29 09:05:13;;;;;;;1.10;0.90;;;;;;;6.27;100.00;95197.25;5032832;28;24432;-72
2021/12/29 09:07:40;;;;;;;1.35;1.00;;;;;;;6.32;100.00;95216.72;5032753;28;24474;-72
2021/12/29 09:10:10;;;;;;;2.63;1.33;;;;;;;6.34;100.00;95208.03;5032347;28;24949;-72
2021/12/29 09:12:37;;;;;;;2.20;1.23;;;;;;;6.37;100.00;95214.72;5032572;28;24435;-72
2021/12/29 09:15:06;;;;;;;2.60;1.33;;;;;;;6.40;100.00;95230.00;5032604;28;24805;-73
2021/12/29 09:17:33;;;;;;;2.70;1.40;;;;;;;6.41;100.00;95227.31;5032405;28;24416;-72
2021/12/29 09:20:01;;;;;;;4.63;1.40;;;;;;;6.50;100.00;95218.28;5032128;28;24961;-72
2021/12/29 09:22:27;;;;;;;2.72;1.10;;;;;;;6.56;100.00;95217.94;5032064;28;24432;-73
2021/12/29 09:24:53;;;;;;;2.03;1.15;;;;;;;6.57;100.00;95221.34;5032268;28;24419;-72
2021/12/29 09:27:21;;;;;;;2.78;1.15;;;;;;;6.60;100.00;95232.31;5032061;28;24470;-72
2021/12/29 09:29:48;;;;;;;1.85;0.90;;;;;;;6.55;100.00;95236.84;5032216;28;24498;-72
2021/12/29 09:32:14;;;;;;;2.97;1.30;;;;;;;6.49;100.00;95242.38;5032026;28;24426;-73
2021/12/29 09:34:41;;;;;;;2.50;1.20;;;;;;;6.45;100.00;95244.28;5032131;28;24471;-73
2021/12/29 09:37:08;;;;;;;2.65;1.20;;;;;;;6.46;100.00;95237.38;5032050;28;24427;-73
2021/12/29 09:39:34;;;;;;;1.85;1.00;;;;;;;6.42;100.00;95248.75;5032100;28;24419;-73
2021/12/29 09:42:01;;;;;;;2.90;1.20;;;;;;;6.44;100.00;95250.31;5031816;28;24501;-73
2021/12/29 09:44:31;;;;;;;2.13;1.17;;;;;;;6.44;100.00;95255.47;5031795;28;24832;-74
2021/12/29 09:46:57;;;;;;;2.40;1.00;;;;;;;6.45;100.00;95256.28;5031847;28;24424;-73
2021/12/29 09:49:24;;;;;;;2.13;1.00;;;;;;;6.46;100.00;95252.81;5031998;28;24435;-72
2021/12/29 09:51:51;;;;;;;4.03;1.20;;;;;;;6.45;100.00;95257.13;5031619;28;24490;-72
2021/12/29 09:54:18;;;;;;;2.47;1.00;;;;;;;6.46;100.00;95261.34;5031954;28;24416;-73
2021/12/29 09:56:44;;;;;;;2.80;0.98;;;;;;;6.50;100.00;95257.69;5031551;28;24451;-73
2021/12/29 09:59:11;;;;;;;2.58;1.00;;;;;;;6.51;100.00;95263.69;5031562;28;24446;-73
2021/12/29 10:01:38;;;;;;;2.35;1.08;;;;;;;6.50;100.00;95264.59;5030866;28;24420;-73
2021/12/29 10:04:05;;;;;;;3.03;0.95;;;;;;;6.55;100.00;95273.72;5031375;28;24426;-73
2021/12/29 10:06:32;;;;;;;1.77;0.85;;;;;;;6.57;100.00;95268.50;5031302;28;24415;-72
2021/12/29 10:09:09;;;;;;;2.53;1.80;;;;;;;6.54;100.00;95261.75;5031097;28;24992;-72
2021/12/29 10:11:36;;;;;;;4.37;2.80;;;;;;;6.61;100.00;95264.00;5031159;28;25035;-72
2021/12/29 10:14:07;;;;;;;4.22;2.15;;;;;;;6.61;100.00;95256.28;5031264;28;24439;-72
2021/12/29 10:16:34;;;;;;;1.95;1.10;;;;;;;6.67;100.00;95256.75;5030838;28;24448;-72
2021/12/29 10:19:04;;;;;;;2.13;1.10;;;;;;;6.72;100.00;95256.53;5031188;28;24439;-73
2021/12/29 10:21:31;;;;;;;3.03;1.50;;;;;;;6.66;100.00;95255.09;5031370;28;24428;-73
2021/12/29 10:23:59;;;;;;;2.88;1.30;;;;;;;6.68;100.00;95252.47;5031430;28;24424;-73
2021/12/29 10:26:28;;;;;;;3.20;0.90;;;;;;;6.75;100.00;95254.59;5031102;28;24416;-73
2021/12/29 10:29:00;;;;;;;2.38;1.50;;;;;;;6.73;100.00;95238.41;5031020;28;24427;-73
2021/12/29 10:31:29;;;;;;;3.28;1.48;;;;;;;6.71;100.00;95239.41;5031206;28;24436;-73
2021/12/29 10:33:58;;;;;;;2.58;1.10;;;;;;;6.70;100.00;95225.72;5031217;28;24420;-72
2021/12/29 10:36:28;;;;;;;2.45;0.95;;;;;;;6.69;100.00;95230.97;5030791;28;24443;-73
2021/12/29 10:39:05;;;;;;;2.65;1.25;;;;;;;6.74;100.00;95218.66;5031319;28;24412;-73
2021/12/29 10:41:42;;;;;;;3.53;1.20;;;;;;;6.74;100.00;95226.38;5030759;28;24432;-73
2021/12/29 10:44:09;;;;;;;5.05;1.15;;;;;;;6.76;100.00;95214.25;5031062;28;24430;-72
2021/12/29 10:46:35;;;;;;;2.58;1.00;;;;;;;6.75;100.00;95220.31;5030570;28;24420;-72
2021/12/29 10:49:06;;;;;;;2.00;0.90;;;;;;;6.76;100.00;95227.13;5030805;28;24442;-72
2021/12/29 10:51:36;;;;;;;2.30;1.05;;;;;;;6.73;100.00;95227.28;5030869;28;24432;-72
2021/12/29 10:54:08;;;;;;;1.52;0.88;;;;;;;6.74;100.00;95237.47;5030713;28;24953;-72
2021/12/29 10:56:36;;;;;;;3.85;1.00;;;;;;;6.76;100.00;95235.66;5030351;28;24440;-72
2021/12/29 10:59:20;;;;;;;2.40;0.85;;;;;;;6.77;100.00;95232.16;5030453;28;24930;-72
2021/12/29 11:01:48;;;;;;;3.47;1.42;;;;;;;6.74;100.00;95234.91;5030506;28;24849;-72
2021/12/29 11:04:15;;;;;;;7.85;1.23;;;;;;;6.71;100.00;95241.97;5030629;28;24430;-73
2021/12/29 11:06:46;;;;;;;2.20;1.02;;;;;;;6.71;100.00;95235.09;5030275;28;24964;-73
2021/12/29 11:09:15;;;;;;;1.80;0.90;;;;;;;6.71;100.00;95229.09;5030672;28;24514;-73
2021/12/29 11:11:43;;;;;;;2.85;0.80;;;;;;;6.69;100.00;95225.81;5030724;28;24518;-73
2021/12/29 11:14:12;;;;;;;3.10;0.85;;;;;;;6.71;100.00;95223.97;5031434;28;24550;-72
2021/12/29 11:16:39;;;;;;;3.45;1.70;;;;;;;6.69;100.00;95230.97;5034173;28;24981;-73
2021/12/29 11:19:06;;;;;;;3.85;1.27;;;;;;;6.76;100.00;95221.97;5034766;28;24447;-72
2021/12/29 11:21:36;;;;;;;5.05;2.13;;;;;;;6.73;100.00;95219.56;5034529;28;24434;-72
2021/12/29 11:24:14;;;;;;;7.28;4.07;;;;;;;6.72;100.00;95217.91;5034529;28;24507;-73
2021/12/29 11:26:41;;;;;;;4.00;1.92;;;;;;;6.73;100.00;95217.00;5033055;28;24419;-72
2021/12/29 11:29:10;;;;;;;3.30;1.33;;;;;;;6.70;100.00;95217.16;5034661;28;24454;-73
2021/12/29 11:31:42;;;;;;;3.30;1.40;;;;;;;6.69;100.00;95218.09;5035025;28;24497;-73
2021/12/29 11:34:14;;;;;;;3.47;1.30;;;;;;;6.71;100.00;95222.25;5034375;28;24420;-72
2021/12/29 11:36:41;;;;;;;4.57;1.55;;;;;;;6.70;100.00;95227.47;5033878;28;24498;-73
2021/12/29 11:39:07;;;;;;;2.17;1.38;;;;;;;6.69;100.00;95223.25;5034078;28;24420;-72
2021/12/29 11:41:35;;;;;;;3.90;1.63;;;;;;;6.71;100.00;95216.25;5034018;28;24420;-72